Salvador do Sul, Brazil
Current Conditions -  °F | °C
As of 11:00 PM on Monday 20 Oct 2014 (Local Time) from SBCO Reporting Station
Few Clouds Few Clouds  
Wind Chill: 61°   Ceiling: Unl
Heat Index: 61°   Visibility: 6mi
Dew Point: 57°   Wind: 3mph
Humidity: 88%   Direction: 150°SSE
Pressure: 30.18"   Gusts: NA
Location:  29.44°S, 51.51°W
Report Text: SBCO 210200Z 15003KT 9999 FEW045 16/14 Q1022
Loading
Personal Weather Stations






























Interactive Weather Map
Tropical Storm Tracking
New forecast layout! Learn more

10-Day Weather Forecast

Advertisements
Track Severe Weather on mobile